Ashton, SD

11:14 AM CDT on May 22, 2015 (GMT -0500)
IEM | | Change Station
CLOSE
Current Station
Personal Weather Station
Location: Redfield, SD
Elevation: 1302 ft
Nearby Weather Stations
Active Advisory: Flood Warning

Elev 1302 ft 44.88 °N, 98.52 °W | Updated 37 minutes ago

Clear
Clear
68 °F
Feels Like 68 °F
N
0
Wind Variable Wind from North
Gusts 0.0 mph

Today
High -- | Low -- °F
--% Chance of Precip.
Yesterday
High -- | Low -- °F
Precip. -- in
5:57 AM 9:03 PM
Waxing Crescent, 22% visible
Pressure 30.17 in
Visibility 10.0 miles
Clouds Clear
Dew Point 45 °F
Humidity 43%
Rainfall in
Snow Depth Not available.
UV 7 out of 12
Pollen 9.10 out of 12
Air Quality Not available.
Flu Activity Sporadic
METAR KABR 221553Z AUTO 14006KT 10SM CLR 20/05 A3017 RMK AO2 SLP215 T02000050

More Conditions Fewer Conditions

Pressure 30.17 in
Visibility 10.0 miles
Clouds Clear
Dew Point 45 °F
Humidity 43%
Rainfall in
Snow Depth Not available.
UV 7 out of 12
Pollen 9.10 out of 12
Air Quality Not available.
Flu Activity Sporadic
METAR KABR 221553Z AUTO 14006KT 10SM CLR 20/05 A3017 RMK AO2 SLP215 T02000050

More Conditions Fewer Conditions

10-Day Weather Forecast

Almanac

Astronomy

May. 22, 2015 Rise Set
Actual Time
Civil Twilight
Nautical Twilight
Astronomical Twilight
Moon
Length of Visible Light
Length of Day
Tomorrow will be .
, % of the Moon is Illuminated

Today's Extremes

State Highs State Lows

Community

WunderPhotos

Upload Photos

1,823,257 photos uploaded!

WunderBlogs® & News

Nearby

Air Quality

  Air Quality AQ Index Pollutant
Not available.

Snow Depth

Station Depth Elevation

Earthquake Activity

City Distance Mag. Time & Date
Minimum magnitude displayed is 2.5.

Coastal Water Temperatures

Place Temperature

Stations

Nearby Weather Stations

Station Location Temp. Windchill Dew Point Humidity Wind Precip. Elev Updated Type
                   
Flood Warning
Statement as of 10:50 AM CDT on May 22, 2015

The Flood Warning continues for
the James River near Stratford
* from Tuesday early afternoon until further notice...
* at 09am Friday the stage was 12.3 feet...
* minor flooding is forecast...
* flood stage is 14.0 feet...
* at 14.5 feet... 142nd street is flooded.




Lat... Lon 4552 9830 4515 9845 4515 9835 4552 9818